Time;durP1;ratioP1;P1;durP2;ratioP2;P2;SDS_P1;SDS_P2;PMS_P1;PMS_P2;Temp;Humidity;BMP_temperature;BMP_pressure;BME280_temperature;BME280_humidity;BME280_pressure;Samples;Min_cycle;Max_cycle;Signal;HPM_P1;HPM_P2
2022/03/24 00:01:36;;;;;;;14.93;6.60;;;;;;;0.62;67.78;96511.72;5093032;28;20515;-73
2022/03/24 00:04:02;;;;;;;17.20;7.60;;;;;;;0.59;67.38;96514.66;5097293;28;20515;-73
2022/03/24 00:06:27;;;;;;;17.40;7.75;;;;;;;0.55;68.11;96513.41;5091325;28;20044;-73
2022/03/24 00:08:53;;;;;;;18.90;7.32;;;;;;;0.61;67.68;96512.69;5093777;28;20036;-73
2022/03/24 00:11:20;;;;;;;14.75;7.05;;;;;;;0.58;67.88;96513.06;5090778;28;20048;-73
2022/03/24 00:13:48;;;;;;;14.27;6.40;;;;;;;0.62;67.86;96514.31;5085540;28;20032;-73
2022/03/24 00:16:17;;;;;;;16.13;7.43;;;;;;;0.60;68.29;96505.91;5107079;28;20054;-73
2022/03/24 00:18:43;;;;;;;15.68;6.88;;;;;;;0.57;68.48;96506.28;5101260;28;20040;-73
2022/03/24 00:21:09;;;;;;;15.80;7.30;;;;;;;0.34;68.98;96512.34;5089631;28;20193;-73
2022/03/24 00:23:35;;;;;;;18.92;7.32;;;;;;;0.31;69.01;96517.91;5086531;28;20047;-73
2022/03/24 00:26:00;;;;;;;24.20;7.63;;;;;;;0.30;69.40;96516.28;5096028;28;20043;-73
2022/03/24 00:28:26;;;;;;;14.75;7.28;;;;;;;0.33;69.56;96510.75;5079304;28;20105;-73
2022/03/24 00:30:52;;;;;;;14.18;7.00;;;;;;;0.17;70.03;96502.19;5092705;28;20517;-72
2022/03/24 00:33:18;;;;;;;15.15;7.18;;;;;;;0.17;70.14;96504.78;5082453;28;20032;-73
2022/03/24 00:35:43;;;;;;;19.00;7.15;;;;;;;0.24;70.03;96507.44;5102185;28;20043;-73
2022/03/24 00:38:09;;;;;;;19.40;7.50;;;;;;;0.37;69.80;96501.63;5093091;28;20703;-74
2022/03/24 00:40:35;;;;;;;18.98;7.57;;;;;;;0.38;69.81;96500.66;5093881;28;20051;-74
2022/03/24 00:43:01;;;;;;;21.13;8.07;;;;;;;0.26;69.93;96504.69;5091573;28;20428;-74
2022/03/24 00:45:27;;;;;;;20.95;7.53;;;;;;;0.24;70.31;96497.09;5088931;28;20062;-74
2022/03/24 00:47:53;;;;;;;18.77;7.70;;;;;;;0.17;70.52;96497.03;5110418;28;20066;-74
2022/03/24 00:50:20;;;;;;;15.35;7.45;;;;;;;0.10;70.65;96501.31;5097472;28;20048;-74
2022/03/24 00:52:46;;;;;;;14.75;7.75;;;;;;;0.14;70.42;96497.38;5101981;28;20052;-74
2022/03/24 00:55:15;;;;;;;17.33;7.22;;;;;;;0.21;70.40;96496.66;5101834;28;20062;-74
2022/03/24 00:57:42;;;;;;;16.75;7.25;;;;;;;0.12;70.18;96494.16;5110854;28;20119;-73
2022/03/24 01:00:13;;;;;;;15.27;7.55;;;;;;;-0.11;71.52;96496.03;5109949;28;20397;-74
2022/03/24 01:02:39;;;;;;;15.50;7.40;;;;;;;-0.05;71.71;96492.72;5110550;28;20129;-74
2022/03/24 01:05:08;;;;;;;21.95;7.57;;;;;;;0.10;71.04;96496.13;5090225;28;20043;-73
2022/03/24 01:07:34;;;;;;;17.92;8.20;;;;;;;0.13;71.03;96495.78;5091223;28;20052;-74
2022/03/24 01:10:00;;;;;;;18.15;7.15;;;;;;;0.15;70.97;96488.63;5107962;28;20040;-74
2022/03/24 01:12:25;;;;;;;15.57;7.00;;;;;;;0.04;71.24;96483.88;5098092;28;20044;-74
2022/03/24 01:14:51;;;;;;;16.67;7.88;;;;;;;-0.11;71.68;96489.06;5100640;28;20135;-74
2022/03/24 01:17:17;;;;;;;14.65;6.43;;;;;;;-0.20;72.25;96490.94;5093076;28;20550;-74
2022/03/24 01:19:44;;;;;;;16.55;7.07;;;;;;;-0.16;72.03;96490.56;5104809;28;20611;-74
2022/03/24 01:22:10;;;;;;;19.80;7.72;;;;;;;-0.08;71.92;96487.91;5104878;28;20051;-74
2022/03/24 01:24:38;;;;;;;13.63;6.82;;;;;;;-0.10;71.83;96489.84;5105807;28;20036;-73
2022/03/24 01:27:05;;;;;;;14.25;6.72;;;;;;;-0.12;72.01;96489.25;5098320;28;20044;-73
2022/03/24 01:29:31;;;;;;;14.55;6.63;;;;;;;-0.07;72.13;96486.91;5091036;28;20047;-74
2022/03/24 01:31:57;;;;;;;15.98;7.07;;;;;;;-0.14;71.87;96484.25;5098128;28;20039;-73
2022/03/24 01:34:23;;;;;;;20.65;8.25;;;;;;;-0.28;72.44;96483.25;5108566;28;20077;-73
2022/03/24 01:36:48;;;;;;;23.70;7.72;;;;;;;-0.33;72.71;96479.56;5095447;28;20040;-74
2022/03/24 01:39:14;;;;;;;17.83;7.32;;;;;;;-0.30;73.27;96476.63;5094183;28;20088;-73
2022/03/24 01:41:40;;;;;;;17.00;7.43;;;;;;;-0.34;73.33;96478.78;5098415;28;20075;-73
2022/03/24 01:44:17;;;;;;;21.38;7.25;;;;;;;-0.29;73.01;96476.47;5072526;28;20040;-73
2022/03/24 01:47:00;;;;;;;18.73;7.63;;;;;;;-0.29;72.96;96473.88;5090072;28;20028;-73
2022/03/24 01:49:28;;;;;;;22.65;7.18;;;;;;;-0.39;73.58;96486.25;5090358;28;20043;-73
2022/03/24 01:51:55;;;;;;;16.08;6.90;;;;;;;-0.27;73.29;96479.69;5095653;28;20051;-73
2022/03/24 01:54:22;;;;;;;13.68;6.72;;;;;;;-0.29;72.74;96473.88;5103931;28;20092;-73
2022/03/24 01:56:49;;;;;;;15.75;7.13;;;;;;;-0.40;73.07;96474.31;5105342;28;20043;-73
2022/03/24 01:59:16;;;;;;;15.05;7.28;;;;;;;-0.50;74.02;96478.91;5109618;28;20043;-73
2022/03/24 02:01:43;;;;;;;20.50;7.82;;;;;;;-0.58;74.37;96478.00;5090574;28;20043;-73
2022/03/24 02:04:09;;;;;;;13.65;7.38;;;;;;;-0.45;74.16;96477.41;5094248;28;20213;-73
2022/03/24 02:06:35;;;;;;;14.95;7.40;;;;;;;-0.44;74.01;96467.91;5105325;28;20044;-73
2022/03/24 02:09:04;;;;;;;16.77;7.82;;;;;;;-0.39;73.96;96465.56;5090056;28;20425;-73
2022/03/24 02:11:31;;;;;;;13.90;6.85;;;;;;;-0.44;73.53;96467.91;5093624;28;20043;-73
2022/03/24 02:13:57;;;;;;;17.35;8.20;;;;;;;-0.38;73.99;96462.00;5101754;28;20039;-73
2022/03/24 02:16:27;;;;;;;14.38;7.18;;;;;;;-0.41;73.92;96462.38;5109327;28;20051;-72
2022/03/24 02:18:59;;;;;;;17.35;7.50;;;;;;;-0.46;74.16;96464.66;5093650;28;20047;-73
2022/03/24 02:21:25;;;;;;;17.92;7.88;;;;;;;-0.49;74.05;96465.81;5112841;27;20044;-73
2022/03/24 02:23:51;;;;;;;17.50;7.72;;;;;;;-0.48;74.36;96464.03;5110063;28;20040;-73
2022/03/24 02:26:18;;;;;;;14.07;7.00;;;;;;;-0.50;74.59;96463.41;5097647;28;20044;-73
2022/03/24 02:28:45;;;;;;;16.02;7.15;;;;;;;-0.48;74.76;96471.81;5077176;28;20036;-72
2022/03/24 02:31:12;;;;;;;20.92;7.90;;;;;;;-0.60;74.91;96464.47;5081672;28;20430;-73
2022/03/24 02:33:37;;;;;;;14.80;6.88;;;;;;;-0.59;75.18;96463.50;5100816;28;20096;-74
2022/03/24 02:36:04;;;;;;;16.80;7.07;;;;;;;-0.64;75.34;96468.38;5087532;27;20055;-73
2022/03/24 02:38:32;;;;;;;16.80;7.18;;;;;;;-0.58;75.81;96462.50;5102561;28;20044;-73
2022/03/24 02:40:58;;;;;;;14.25;7.20;;;;;;;-0.62;75.80;96463.81;5093004;28;20028;-73
2022/03/24 02:43:24;;;;;;;17.02;7.57;;;;;;;-0.62;75.87;96469.00;5086468;28;20486;-73
2022/03/24 02:45:53;;;;;;;16.98;7.35;;;;;;;-0.67;75.91;96463.56;5071636;28;20502;-73
2022/03/24 02:48:22;;;;;;;16.48;7.45;;;;;;;-0.68;75.81;96467.13;5071501;28;20047;-73
2022/03/24 02:50:49;;;;;;;19.20;7.40;;;;;;;-0.67;75.96;96463.56;5089517;28;20628;-73
2022/03/24 02:53:15;;;;;;;18.20;7.80;;;;;;;-0.79;77.06;96464.94;5092457;28;20047;-73
2022/03/24 02:55:41;;;;;;;14.02;6.63;;;;;;;-0.84;77.09;96470.63;5097440;28;20521;-73
2022/03/24 02:58:07;;;;;;;14.45;7.07;;;;;;;-0.88;77.04;96462.44;5084361;28;20047;-73
2022/03/24 03:00:32;;;;;;;16.95;7.43;;;;;;;-0.80;76.67;96468.53;5071215;28;20489;-73
2022/03/24 03:02:59;;;;;;;16.40;7.28;;;;;;;-0.76;76.29;96469.75;5088675;28;20054;-73
2022/03/24 03:05:25;;;;;;;14.23;7.00;;;;;;;-0.75;77.00;96466.22;5071186;28;20112;-73
2022/03/24 03:07:51;;;;;;;21.00;7.38;;;;;;;-0.87;77.39;96469.19;5070755;28;20477;-73
2022/03/24 03:10:17;;;;;;;18.52;7.63;;;;;;;-0.90;77.68;96469.53;5088941;28;20040;-73
2022/03/24 03:12:46;;;;;;;14.25;7.05;;;;;;;-0.85;77.19;96471.59;5089207;28;20042;-73
2022/03/24 03:15:12;;;;;;;14.52;7.00;;;;;;;-0.86;76.51;96475.19;5086146;28;20036;-73
2022/03/24 03:17:38;;;;;;;14.82;7.13;;;;;;;-0.78;76.69;96471.72;5108875;28;20100;-73
2022/03/24 03:20:05;;;;;;;15.98;7.63;;;;;;;-0.77;76.70;96473.34;5098993;28;20551;-73
2022/03/24 03:22:32;;;;;;;17.40;7.32;;;;;;;-0.83;77.37;96474.84;5088605;28;20039;-73
2022/03/24 03:24:59;;;;;;;15.30;7.10;;;;;;;-0.85;77.80;96476.78;5093601;28;20043;-73
2022/03/24 03:27:27;;;;;;;15.13;7.07;;;;;;;-0.91;77.61;96473.09;5071110;28;20055;-73
2022/03/24 03:29:53;;;;;;;15.20;6.75;;;;;;;-0.90;77.22;96474.72;5089006;28;20040;-73
2022/03/24 03:32:21;;;;;;;17.55;6.70;;;;;;;-0.95;77.85;96477.03;5070890;28;20055;-73
2022/03/24 03:34:48;;;;;;;17.33;7.70;;;;;;;-0.95;78.19;96469.28;5080517;28;20036;-73
2022/03/24 03:37:14;;;;;;;15.93;6.50;;;;;;;-0.92;77.90;96471.50;5072269;28;20436;-73
2022/03/24 03:39:39;;;;;;;16.02;7.30;;;;;;;-1.00;78.17;96473.34;5101827;28;20039;-73
2022/03/24 03:42:05;;;;;;;15.25;7.40;;;;;;;-1.07;78.48;96468.06;5101196;28;20042;-73
2022/03/24 03:44:31;;;;;;;15.13;6.57;;;;;;;-1.04;78.76;96478.06;5092059;28;20055;-73
2022/03/24 03:46:56;;;;;;;14.10;6.50;;;;;;;-1.06;78.26;96480.81;5083013;28;20062;-73
2022/03/24 03:49:22;;;;;;;16.55;6.80;;;;;;;-1.05;78.73;96476.44;5108423;28;20044;-72
2022/03/24 03:51:49;;;;;;;14.65;6.68;;;;;;;-1.11;78.89;96471.97;5078263;28;20486;-72
2022/03/24 03:54:15;;;;;;;13.75;6.47;;;;;;;-1.14;79.18;96474.91;5108171;28;20828;-75
2022/03/24 03:56:41;;;;;;;14.35;7.30;;;;;;;-1.14;79.09;96477.47;5083157;28;20039;-75
2022/03/24 03:59:07;;;;;;;17.08;7.80;;;;;;;-1.22;79.32;96476.56;5091543;28;20413;-75
2022/03/24 04:01:33;;;;;;;16.92;7.07;;;;;;;-1.27;79.77;96468.50;5088646;28;20101;-75
2022/03/24 04:04:00;;;;;;;16.27;7.05;;;;;;;-1.28;79.79;96472.06;5070716;28;20054;-75
2022/03/24 04:06:26;;;;;;;17.15;7.25;;;;;;;-1.30;80.67;96474.00;5104070;28;20047;-75
2022/03/24 04:08:51;;;;;;;14.65;6.80;;;;;;;-1.31;81.52;96477.56;5097783;28;20421;-75
2022/03/24 04:11:17;;;;;;;17.70;6.60;;;;;;;-1.36;81.24;96474.69;5112731;28;20047;-75
2022/03/24 04:13:43;;;;;;;17.52;6.43;;;;;;;-1.39;81.64;96469.88;5107963;28;20040;-75
2022/03/24 04:16:11;;;;;;;18.48;7.38;;;;;;;-1.41;82.39;96471.81;5111558;28;20048;-75
2022/03/24 04:18:41;;;;;;;20.70;7.25;;;;;;;-1.22;82.25;96471.38;5097010;28;20044;-75
2022/03/24 04:21:08;;;;;;;14.85;6.90;;;;;;;-1.19;81.08;96469.41;5092076;28;20047;-75
2022/03/24 04:23:38;;;;;;;12.85;6.40;;;;;;;-1.29;81.44;96470.47;5092219;28;20074;-75
2022/03/24 04:26:05;;;;;;;16.33;6.68;;;;;;;-1.37;81.79;96482.63;5103812;28;20055;-75
2022/03/24 04:28:31;;;;;;;19.60;7.20;;;;;;;-1.27;81.20;96472.88;5098864;28;20390;-75
2022/03/24 04:30:56;;;;;;;15.27;7.13;;;;;;;-1.51;82.14;96476.38;5074155;28;20410;-75
2022/03/24 04:33:23;;;;;;;16.83;6.85;;;;;;;-1.42;82.25;96477.97;5096292;28;20040;-75
2022/03/24 04:35:49;;;;;;;18.13;7.20;;;;;;;-1.33;81.73;96479.53;5103867;28;20052;-75
2022/03/24 04:38:15;;;;;;;14.15;6.72;;;;;;;-1.34;81.77;96472.75;5110325;28;20051;-75
2022/03/24 04:40:40;;;;;;;19.08;6.88;;;;;;;-1.37;81.92;96480.84;5106242;28;20039;-75
2022/03/24 04:43:06;;;;;;;15.55;6.50;;;;;;;-1.41;81.57;96479.56;5089211;28;20040;-72
2022/03/24 04:45:33;;;;;;;14.80;6.78;;;;;;;-1.45;82.42;96476.53;5098284;28;20040;-74
2022/03/24 04:48:00;;;;;;;15.50;7.28;;;;;;;-1.48;82.51;96476.03;5108103;28;20051;-72
2022/03/24 04:50:27;;;;;;;18.05;6.82;;;;;;;-1.50;82.39;96473.63;5085980;28;20129;-72
2022/03/24 04:52:53;;;;;;;19.00;6.90;;;;;;;-1.50;82.29;96476.22;5110505;28;20527;-75
2022/03/24 04:55:18;;;;;;;13.45;6.32;;;;;;;-1.49;81.48;96479.63;5092244;28;20032;-75
2022/03/24 04:57:44;;;;;;;13.75;6.43;;;;;;;-1.53;81.76;96483.50;5091844;28;20043;-75
2022/03/24 05:00:11;;;;;;;14.13;6.57;;;;;;;-1.53;82.00;96483.50;5092281;28;20054;-73
2022/03/24 05:02:38;;;;;;;16.38;6.80;;;;;;;-1.50;81.88;96483.16;5111944;28;20039;-73
2022/03/24 05:05:06;;;;;;;18.73;6.47;;;;;;;-1.47;81.82;96482.81;5082497;28;20043;-73
2022/03/24 05:07:32;;;;;;;15.18;6.38;;;;;;;-1.46;81.56;96476.69;5111252;28;20039;-72
2022/03/24 05:09:57;;;;;;;16.45;6.63;;;;;;;-1.53;81.71;96486.88;5103912;28;20047;-72
2022/03/24 05:12:23;;;;;;;14.73;6.53;;;;;;;-1.59;81.76;96483.19;5107169;28;20135;-72
2022/03/24 05:14:50;;;;;;;16.48;6.70;;;;;;;-1.61;81.58;96482.56;5091223;28;20097;-72
2022/03/24 05:17:16;;;;;;;14.40;6.70;;;;;;;-1.58;82.29;96482.22;5091129;28;20123;-73
2022/03/24 05:19:44;;;;;;;13.82;6.30;;;;;;;-1.57;82.00;96483.84;5091509;28;20044;-72
2022/03/24 05:22:11;;;;;;;13.80;6.20;;;;;;;-1.53;81.56;96488.66;5082405;28;20056;-72
2022/03/24 05:24:38;;;;;;;16.52;6.40;;;;;;;-1.52;81.87;96492.84;5111434;27;20063;-72
2022/03/24 05:27:05;;;;;;;13.80;6.45;;;;;;;-1.54;81.89;96487.06;5109398;28;20054;-72
2022/03/24 05:29:31;;;;;;;15.18;6.90;;;;;;;-1.52;82.23;96485.09;5092616;28;20036;-72
2022/03/24 05:31:57;;;;;;;14.23;6.55;;;;;;;-1.46;82.13;96494.78;5091461;28;20245;-72
2022/03/24 05:34:23;;;;;;;16.05;6.25;;;;;;;-1.39;81.51;96498.28;5083113;28;20041;-72
2022/03/24 05:36:50;;;;;;;13.30;6.40;;;;;;;-1.43;81.56;96494.44;5091145;28;20048;-72
2022/03/24 05:39:15;;;;;;;10.80;5.55;;;;;;;-1.33;81.85;96483.88;5095536;28;20048;-73
2022/03/24 05:41:41;;;;;;;13.73;6.50;;;;;;;-1.30;81.40;96484.34;5092237;28;20035;-73
2022/03/24 05:44:07;;;;;;;14.00;6.28;;;;;;;-1.32;81.57;96491.47;5086763;28;20040;-75
2022/03/24 05:46:34;;;;;;;16.40;6.35;;;;;;;-1.31;81.45;96490.47;5089650;28;20051;-75
2022/03/24 05:49:00;;;;;;;13.80;6.25;;;;;;;-1.31;81.40;96497.44;5072901;28;20070;-75
2022/03/24 05:51:27;;;;;;;13.95;5.72;;;;;;;-1.29;81.26;96496.28;5090732;28;20083;-75
2022/03/24 05:53:53;;;;;;;13.25;6.60;;;;;;;-1.26;81.22;96495.94;5093812;28;20085;-76
2022/03/24 05:56:19;;;;;;;12.07;6.05;;;;;;;-1.17;81.43;96488.94;5072554;28;20036;-73
2022/03/24 05:58:46;;;;;;;14.77;6.50;;;;;;;-1.19;81.51;96495.25;5090577;28;20520;-72
2022/03/24 06:01:12;;;;;;;14.63;6.00;;;;;;;-1.15;83.06;96497.34;5098165;28;20036;-73
2022/03/24 06:03:37;;;;;;;12.38;6.20;;;;;;;-1.10;81.93;96495.03;5101904;28;20451;-72
2022/03/24 06:06:08;;;;;;;13.27;6.25;;;;;;;-0.90;81.60;96504.94;5099726;28;20036;-73
2022/03/24 06:08:35;;;;;;;22.70;6.45;;;;;;;-0.91;81.78;96506.69;5086675;28;20044;-73
2022/03/24 06:11:01;;;;;;;13.48;6.57;;;;;;;-0.89;82.26;96502.19;5092850;28;20044;-72
2022/03/24 06:13:27;;;;;;;17.75;6.43;;;;;;;-0.83;82.48;96499.88;5091240;28;20036;-72
2022/03/24 06:15:54;;;;;;;17.88;6.40;;;;;;;-0.74;82.41;96501.44;5089939;28;20371;-72
2022/03/24 06:18:20;;;;;;;13.65;6.20;;;;;;;-0.70;82.85;96500.09;5090178;28;20131;-72
2022/03/24 06:20:46;;;;;;;15.98;6.63;;;;;;;-0.63;83.04;96501.03;5102590;28;20051;-72
2022/03/24 06:23:12;;;;;;;17.90;6.88;;;;;;;-0.49;82.32;96511.56;5100496;28;20060;-73
2022/03/24 06:25:42;;;;;;;14.02;6.53;;;;;;;-0.38;82.19;96508.56;5104173;27;20409;-73
2022/03/24 06:28:08;;;;;;;15.63;6.85;;;;;;;-0.31;82.35;96509.47;5098192;28;20035;-73
2022/03/24 06:30:35;;;;;;;30.45;7.60;;;;;;;-0.28;82.50;96503.94;5108317;28;20077;-73
2022/03/24 06:33:01;;;;;;;25.05;7.22;;;;;;;-0.26;82.54;96502.00;5101484;28;20043;-73
2022/03/24 06:35:27;;;;;;;14.05;6.35;;;;;;;-0.19;82.89;96497.72;5083268;28;20509;-73
2022/03/24 06:37:53;;;;;;;13.43;6.30;;;;;;;-0.10;83.01;96500.22;5072061;28;20040;-73
2022/03/24 06:40:19;;;;;;;18.15;6.22;;;;;;;-0.01;82.68;96504.34;5089933;28;20036;-73
2022/03/24 06:42:44;;;;;;;16.05;6.53;;;;;;;0.04;82.77;96503.78;5089440;28;20463;-73
2022/03/24 06:45:12;;;;;;;22.58;6.47;;;;;;;0.09;83.67;96499.69;5099320;28;20050;-73
2022/03/24 06:47:42;;;;;;;21.73;7.00;;;;;;;0.20;83.65;96508.00;5101407;28;20085;-73
2022/03/24 06:50:10;;;;;;;17.77;6.50;;;;;;;0.29;83.02;96501.75;5077590;28;20036;-73
2022/03/24 06:52:36;;;;;;;28.75;6.57;;;;;;;0.41;83.53;96497.72;5083328;28;20040;-73
2022/03/24 06:55:05;;;;;;;14.98;6.20;;;;;;;0.52;83.93;96499.84;5098268;27;20063;-73
2022/03/24 06:57:31;;;;;;;12.88;6.07;;;;;;;0.61;84.11;96497.16;5109017;28;20035;-74
2022/03/24 06:59:57;;;;;;;21.00;5.90;;;;;;;0.73;84.57;96500.84;5087338;28;20032;-70
2022/03/24 07:02:24;;;;;;;13.77;5.85;;;;;;;0.89;84.45;96501.63;5089388;28;20550;-74
2022/03/24 07:04:49;;;;;;;19.45;6.55;;;;;;;1.02;85.04;96493.97;5074908;28;20044;-72
2022/03/24 07:07:15;;;;;;;12.50;5.88;;;;;;;1.19;84.54;96505.75;5105841;28;20097;-72
2022/03/24 07:09:41;;;;;;;14.00;6.80;;;;;;;1.45;83.93;96504.38;5099375;28;20040;-72
2022/03/24 07:12:07;;;;;;;15.77;5.57;;;;;;;1.84;79.98;96508.25;5103595;28;20493;-72
2022/03/24 07:14:33;;;;;;;9.80;5.00;;;;;;;2.40;75.95;96502.19;5093922;28;20548;-72
2022/03/24 07:16:58;;;;;;;13.18;5.63;;;;;;;3.06;72.40;96505.19;5099026;28;20088;-72
2022/03/24 07:19:24;;;;;;;9.88;5.13;;;;;;;3.61;69.77;96508.47;5088990;28;20056;-72
2022/03/24 07:21:49;;;;;;;9.65;5.13;;;;;;;3.91;68.37;96502.84;5096378;28;20405;-72
2022/03/24 07:24:15;;;;;;;10.98;5.13;;;;;;;4.33;66.02;96495.53;5099630;28;20046;-72
2022/03/24 07:26:41;;;;;;;10.68;5.40;;;;;;;4.50;65.59;96500.31;5098533;28;20067;-72
2022/03/24 07:29:06;;;;;;;10.75;4.60;;;;;;;4.89;62.61;96497.75;5104453;28;20058;-72
2022/03/24 07:31:33;;;;;;;9.15;5.00;;;;;;;5.38;61.88;96494.44;5102984;28;20040;-72
2022/03/24 07:33:59;;;;;;;15.45;5.13;;;;;;;5.33;62.34;96494.28;5086642;28;20048;-73
2022/03/24 07:36:25;;;;;;;7.97;4.53;;;;;;;5.69;59.60;96503.25;5054055;28;20429;-74
2022/03/24 07:38:56;;;;;;;14.98;4.80;;;;;;;5.90;59.91;96503.88;5088709;28;20044;-74
2022/03/24 07:41:22;;;;;;;7.78;4.50;;;;;;;6.16;58.23;96496.81;5080681;28;20047;-75
2022/03/24 07:43:48;;;;;;;9.02;4.85;;;;;;;6.39;57.36;96496.19;5084729;28;20417;-75
2022/03/24 07:46:13;;;;;;;10.57;5.35;;;;;;;6.43;58.29;96501.78;5103281;28;20043;-74
2022/03/24 07:48:39;;;;;;;10.27;4.55;;;;;;;6.57;56.90;96503.22;5074965;28;20052;-74
2022/03/24 07:51:06;;;;;;;10.18;4.85;;;;;;;7.04;55.42;96497.41;5092659;28;20047;-74
2022/03/24 07:53:31;;;;;;;11.93;4.80;;;;;;;7.27;54.98;96502.72;5102712;28;20036;-71
2022/03/24 07:55:59;;;;;;;9.45;4.80;;;;;;;7.37;53.81;96496.97;5105601;28;20036;-73
2022/03/24 07:58:25;;;;;;;7.55;4.35;;;;;;;7.53;52.86;96499.94;5104667;28;20672;-73
2022/03/24 08:00:50;;;;;;;8.98;4.70;;;;;;;7.65;53.01;96502.59;5111849;28;20043;-74
2022/03/24 08:03:20;;;;;;;8.38;4.90;;;;;;;7.62;52.67;96501.22;5099695;28;20032;-73
2022/03/24 08:05:48;;;;;;;12.13;4.80;;;;;;;7.70;52.71;96503.50;5111715;28;20039;-74
2022/03/24 08:08:14;;;;;;;9.35;4.85;;;;;;;7.79;51.74;96496.91;5108481;28;20038;-74
2022/03/24 08:10:41;;;;;;;8.57;4.47;;;;;;;7.87;53.47;96501.00;5074511;28;20047;-73
2022/03/24 08:13:08;;;;;;;8.57;4.68;;;;;;;7.88;52.29;96496.56;5103693;27;20051;-73
2022/03/24 08:15:36;;;;;;;8.57;4.88;;;;;;;7.97;51.19;96500.44;5101578;28;20697;-72
2022/03/24 08:18:04;;;;;;;10.20;4.75;;;;;;;8.24;51.71;96497.34;5100081;28;20044;-72
2022/03/24 08:20:30;;;;;;;9.20;5.10;;;;;;;8.30;50.73;96494.63;5092345;28;20055;-73
2022/03/24 08:22:56;;;;;;;11.00;5.10;;;;;;;8.59;49.28;96496.53;5092121;28;20064;-72
2022/03/24 08:25:22;;;;;;;8.55;4.63;;;;;;;8.90;47.37;96486.63;5101990;28;20127;-73
2022/03/24 08:27:48;;;;;;;10.73;4.60;;;;;;;8.91;49.39;96494.28;5100688;28;20527;-74
2022/03/24 08:30:14;;;;;;;9.23;4.57;;;;;;;9.11;48.40;96483.34;5111154;28;20051;-74
2022/03/24 08:32:40;;;;;;;8.90;4.70;;;;;;;9.25;47.78;96489.09;5097008;28;20047;-73
2022/03/24 08:35:06;;;;;;;8.85;4.85;;;;;;;9.57;47.18;96479.88;5108809;28;20105;-73
2022/03/24 08:37:32;;;;;;;9.95;5.20;;;;;;;9.48;46.02;96482.91;5099434;28;20043;-73
2022/03/24 08:39:57;;;;;;;8.88;4.75;;;;;;;9.57;45.16;96479.88;5106216;28;20489;-74
2022/03/24 08:42:23;;;;;;;12.88;5.45;;;;;;;9.69;45.06;96480.59;5093434;28;20118;-73
2022/03/24 08:44:49;;;;;;;11.27;5.43;;;;;;;10.04;43.94;96490.06;5092990;28;20093;-74
2022/03/24 08:47:15;;;;;;;8.82;5.30;;;;;;;10.15;43.03;96476.00;5106013;28;20039;-73
2022/03/24 08:49:41;;;;;;;8.27;5.20;;;;;;;10.14;42.45;96479.69;5095775;28;20465;-73
2022/03/24 08:52:08;;;;;;;9.20;5.40;;;;;;;10.14;42.32;96484.97;5076872;28;20040;-75
2022/03/24 08:54:34;;;;;;;9.50;5.00;;;;;;;10.29;41.05;96480.94;5090563;28;20413;-74
2022/03/24 08:57:00;;;;;;;8.93;5.55;;;;;;;10.47;41.76;96475.38;5089085;28;20571;-74
2022/03/24 08:59:26;;;;;;;9.63;5.63;;;;;;;10.48;41.51;96484.88;5102986;28;20093;-75
2022/03/24 09:01:51;;;;;;;10.63;5.72;;;;;;;10.68;40.83;96478.28;5097631;28;20097;-75
2022/03/24 09:04:20;;;;;;;11.65;5.70;;;;;;;10.86;40.34;96477.16;5102222;28;20063;-75
2022/03/24 09:06:46;;;;;;;9.65;5.35;;;;;;;10.84;40.70;96477.41;5097488;28;20044;-76
2022/03/24 09:09:12;;;;;;;11.10;5.65;;;;;;;10.87;40.09;96476.13;5091516;28;20413;-76
2022/03/24 09:11:38;;;;;;;10.80;5.40;;;;;;;11.04;40.68;96482.09;5099623;28;20044;-75
2022/03/24 09:14:03;;;;;;;11.18;5.60;;;;;;;11.22;39.94;96478.31;5094229;28;20051;-75
2022/03/24 09:16:29;;;;;;;9.63;5.30;;;;;;;11.48;38.67;96481.19;5086433;28;20126;-75
2022/03/24 09:18:54;;;;;;;14.45;6.20;;;;;;;11.52;38.97;96476.19;5096924;28;20044;-75
2022/03/24 09:21:20;;;;;;;12.10;5.97;;;;;;;11.61;38.04;96486.03;5110286;28;20046;-76
2022/03/24 09:23:46;;;;;;;10.32;5.57;;;;;;;11.90;37.33;96480.44;5090085;28;20047;-75
2022/03/24 09:26:12;;;;;;;10.55;5.82;;;;;;;11.99;37.20;96480.00;5104549;28;20031;-75
2022/03/24 09:28:38;;;;;;;10.10;6.25;;;;;;;12.08;36.97;96483.75;5111668;28;20040;-76
2022/03/24 09:31:03;;;;;;;11.63;6.25;;;;;;;12.21;36.70;96482.50;5097090;28;20597;-76
2022/03/24 09:33:29;;;;;;;9.25;5.90;;;;;;;12.08;37.69;96481.09;5090792;28;20067;-76
2022/03/24 09:35:55;;;;;;;11.13;6.15;;;;;;;12.19;36.64;96480.13;5090652;28;20040;-76
2022/03/24 09:38:21;;;;;;;13.65;6.50;;;;;;;12.21;36.21;96483.31;5094760;28;20149;-76
2022/03/24 09:40:46;;;;;;;14.07;7.10;;;;;;;12.44;35.53;96481.31;5089380;28;20121;-76
2022/03/24 09:43:13;;;;;;;15.48;6.65;;;;;;;12.50;35.19;96480.28;5090406;28;20036;-76
2022/03/24 09:45:41;;;;;;;11.52;6.60;;;;;;;12.47;35.54;96480.81;5100204;28;20044;-76
2022/03/24 09:48:07;;;;;;;13.82;7.32;;;;;;;12.70;35.12;96478.78;5091452;28;20036;-75
2022/03/24 09:50:34;;;;;;;10.50;6.60;;;;;;;12.62;35.09;96472.94;5099537;28;20071;-75
2022/03/24 09:53:00;;;;;;;14.13;7.38;;;;;;;13.15;34.24;96474.69;5104225;28;20108;-75
2022/03/24 09:55:26;;;;;;;12.73;7.70;;;;;;;13.15;33.07;96474.69;5091292;28;20082;-75
2022/03/24 09:57:52;;;;;;;13.93;8.00;;;;;;;13.37;32.66;96474.47;5097970;28;20505;-75
2022/03/24 10:00:18;;;;;;;12.20;7.70;;;;;;;13.43;32.81;96467.31;5090591;28;20040;-76
2022/03/24 10:03:09;;;;;;;13.10;7.40;;;;;;;13.62;31.87;96473.69;5088213;28;20048;-76
2022/03/24 10:05:35;;;;;;;16.70;8.20;;;;;;;13.94;31.17;96459.38;5094097;28;20491;-75
2022/03/24 10:08:07;;;;;;;17.08;7.70;;;;;;;14.12;31.82;96460.69;5104934;28;20040;-76
2022/03/24 10:10:37;;;;;;;13.88;8.23;;;;;;;14.40;31.80;96460.34;5108474;28;20093;-76
2022/03/24 10:13:04;;;;;;;17.25;8.48;;;;;;;14.56;30.67;96453.91;5098122;28;20561;-75
2022/03/24 10:15:30;;;;;;;16.25;9.05;;;;;;;14.84;29.34;96460.44;5106350;28;20052;-75
2022/03/24 10:17:57;;;;;;;12.43;7.95;;;;;;;15.13;28.98;96459.75;5089930;28;20067;-76
2022/03/24 10:20:28;;;;;;;12.65;7.65;;;;;;;16.08;28.49;96457.66;5075029;28;20040;-75
2022/03/24 10:23:04;;;;;;;14.32;8.65;;;;;;;17.28;26.81;96452.50;5093581;28;20040;-75
2022/03/24 10:25:33;;;;;;;20.15;8.85;;;;;;;18.38;25.15;96445.88;5089707;28;20036;-75
2022/03/24 10:28:12;;;;;;;20.08;9.73;;;;;;;17.30;26.21;96455.66;5090266;28;20040;-76
2022/03/24 10:31:04;;;;;;;17.90;9.43;;;;;;;17.63;24.42;96447.72;5083557;28;20500;-75
2022/03/24 10:33:40;;;;;;;14.90;9.00;;;;;;;18.25;24.18;96446.66;5094294;28;20063;-75
2022/03/24 10:36:15;;;;;;;22.63;9.27;;;;;;;18.76;24.69;96445.66;5093199;28;20465;-75
2022/03/24 10:38:45;;;;;;;15.18;9.95;;;;;;;18.02;24.13;96443.09;5089705;28;20503;-76
2022/03/24 10:41:30;;;;;;;14.40;8.55;;;;;;;18.53;22.94;96432.25;5089359;28;20536;-75
2022/03/24 10:43:59;;;;;;;13.60;8.13;;;;;;;19.84;24.27;96434.41;5075842;28;20036;-76
2022/03/24 10:46:27;;;;;;;15.35;9.10;;;;;;;21.01;22.42;96439.50;5101765;28;20119;-72
2022/03/24 10:48:54;;;;;;;13.45;9.00;;;;;;;21.14;21.83;96435.88;5104125;28;20544;-72
2022/03/24 10:51:28;;;;;;;16.13;10.50;;;;;;;19.63;22.80;96434.09;5073494;28;20044;-72
2022/03/24 10:54:09;;;;;;;17.85;9.95;;;;;;;20.91;21.25;96433.34;5100838;28;20098;-72
2022/03/24 10:56:39;;;;;;;18.38;10.10;;;;;;;22.10;20.56;96416.22;5074246;28;20071;-73
2022/03/24 10:59:05;;;;;;;15.63;10.82;;;;;;;21.97;20.41;96424.13;5074167;28;20054;-73
2022/03/24 11:01:32;;;;;;;18.42;10.15;;;;;;;21.08;20.99;96411.16;5108730;28;20043;-76
2022/03/24 11:03:59;;;;;;;14.75;9.75;;;;;;;20.78;20.46;96423.59;5087696;28;20040;-74
2022/03/24 11:06:27;;;;;;;14.82;9.90;;;;;;;21.16;20.49;96412.28;5095866;28;20397;-74
2022/03/24 11:08:58;;;;;;;14.80;9.27;;;;;;;21.02;21.29;96411.63;5101034;28;20486;-74
2022/03/24 11:11:24;;;;;;;12.85;9.30;;;;;;;22.26;19.63;96414.56;5101929;28;20040;-74
2022/03/24 11:13:55;;;;;;;19.55;9.45;;;;;;;21.64;20.21;96421.22;5090464;28;20046;-74
2022/03/24 11:16:24;;;;;;;17.88;9.65;;;;;;;23.51;19.10;96409.59;5095315;28;20043;-74
2022/03/24 11:18:52;;;;;;;14.25;9.48;;;;;;;22.62;19.09;96415.97;5095863;28;20043;-76
2022/03/24 11:21:26;;;;;;;13.15;9.90;;;;;;;21.83;19.00;96410.16;5105982;27;20401;-74
2022/03/24 11:23:53;;;;;;;17.02;10.35;;;;;;;21.11;19.49;96404.41;5098523;28;20052;-74
2022/03/24 11:26:21;;;;;;;16.05;9.55;;;;;;;21.50;20.03;96408.00;5092603;28;20043;-75
2022/03/24 11:28:49;;;;;;;12.07;8.82;;;;;;;22.26;18.39;96401.16;5106796;28;20602;-74